createdAt,value
2019-05-21T00:01:27.977Z,28.97
2019-05-21T00:04:02.477Z,32.47
2019-05-21T00:06:34.987Z,27.07
2019-05-21T00:09:07.374Z,26.77
2019-05-21T00:11:42.898Z,29.37
2019-05-21T00:14:15.290Z,30.47
2019-05-21T00:16:48.304Z,25.83
2019-05-21T00:19:21.082Z,25.43
2019-05-21T00:21:55.477Z,29.53
2019-05-21T00:24:28.942Z,25.50
2019-05-21T00:27:01.631Z,30.10
2019-05-21T00:30:12.333Z,28.83
2019-05-21T00:33:03.194Z,25.83
2019-05-21T00:36:12.645Z,33.70
2019-05-21T00:39:02.619Z,31.40
2019-05-21T00:42:05.966Z,31.40
2019-05-21T00:44:39.051Z,32.13
2019-05-21T00:47:11.329Z,33.30
2019-05-21T00:49:45.186Z,31.83
2019-05-21T00:52:16.653Z,30.17
2019-05-21T00:54:48.938Z,31.23
2019-05-21T00:57:21.325Z,31.90
2019-05-21T00:59:53.002Z,26.10
2019-05-21T01:02:25.680Z,32.73
2019-05-21T01:05:01.007Z,36.10
2019-05-21T01:07:32.665Z,34.70
2019-05-21T01:10:08.894Z,31.73
2019-05-21T01:12:43.406Z,37.97
2019-05-21T01:15:16.121Z,35.00
2019-05-21T01:17:50.330Z,41.17
2019-05-21T01:20:21.791Z,30.23
2019-05-21T01:22:54.109Z,36.63
2019-05-21T01:25:25.530Z,34.60
2019-05-21T01:27:58.250Z,35.53
2019-05-21T01:30:30.098Z,34.90
2019-05-21T01:33:02.649Z,31.20
2019-05-21T01:35:34.386Z,29.70
2019-05-21T01:38:07.187Z,33.37
2019-05-21T01:40:39.890Z,33.00
2019-05-21T01:43:13.837Z,29.93
2019-05-21T01:45:45.165Z,32.03
2019-05-21T01:48:17.854Z,30.30
2019-05-21T01:50:51.342Z,25.77
2019-05-21T01:53:25.260Z,31.53
2019-05-21T01:55:57.758Z,32.00
2019-05-21T01:58:30.395Z,33.67
2019-05-21T02:01:04.494Z,28.43
2019-05-21T02:03:37.255Z,33.17
2019-05-21T02:06:11.486Z,31.23
2019-05-21T02:08:44.934Z,37.83
2019-05-21T02:11:17.556Z,29.40
2019-05-21T02:13:50.692Z,36.37
2019-05-21T02:16:23.380Z,37.13
2019-05-21T02:18:56.090Z,41.30
2019-05-21T02:21:30.570Z,33.03
2019-05-21T02:24:02.093Z,39.47
2019-05-21T02:26:34.520Z,41.07
2019-05-21T02:29:06.786Z,35.20
2019-05-21T02:31:39.091Z,45.17
2019-05-21T02:34:11.752Z,47.10
2019-05-21T02:36:44.487Z,48.57
2019-05-21T02:39:16.334Z,48.47
2019-05-21T02:41:50.315Z,43.70
2019-05-21T02:44:22.758Z,41.77
2019-05-21T02:46:55.474Z,48.17
2019-05-21T02:49:27.807Z,43.50
2019-05-21T02:51:59.130Z,46.20
2019-05-21T02:54:40.902Z,46.73
2019-05-21T02:57:06.202Z,51.63
2019-05-21T02:59:38.937Z,52.13
2019-05-21T03:02:18.096Z,45.30
2019-05-21T03:04:51.535Z,50.87
2019-05-21T03:07:25.697Z,59.90
2019-05-21T03:09:58.583Z,68.70
2019-05-21T03:12:30.995Z,83.13
2019-05-21T03:15:04.312Z,71.53
2019-05-21T03:17:37.002Z,89.37
2019-05-21T03:20:09.625Z,77.00
2019-05-21T03:22:41.032Z,104.23
2019-05-21T03:25:13.493Z,88.07
2019-05-21T03:27:46.445Z,92.83
2019-05-21T03:30:21.157Z,86.20
2019-05-21T03:32:53.117Z,93.27
2019-05-21T03:35:25.866Z,101.70
2019-05-21T03:37:58.670Z,97.67
2019-05-21T03:40:33.257Z,121.40
2019-05-21T03:43:04.792Z,94.83
2019-05-21T03:45:37.484Z,110.37
2019-05-21T03:48:10.024Z,84.83
2019-05-21T03:50:41.438Z,116.20
2019-05-21T03:53:13.199Z,107.60
2019-05-21T03:55:45.997Z,107.73
2019-05-21T03:58:18.606Z,83.50
2019-05-21T04:00:53.002Z,92.87
2019-05-21T04:03:25.775Z,83.83
2019-05-21T04:06:01.323Z,94.27
2019-05-21T04:08:34.038Z,85.60
2019-05-21T04:11:08.206Z,78.57
2019-05-21T04:13:39.663Z,91.70
2019-05-21T04:16:24.381Z,81.33
2019-05-21T04:19:07.517Z,79.67
2019-05-21T04:21:41.263Z,76.97
2019-05-21T04:24:13.971Z,67.63
2019-05-21T04:26:46.050Z,72.23
2019-05-21T04:29:17.485Z,72.57
2019-05-21T04:31:50.121Z,72.57
2019-05-21T04:34:22.053Z,56.17
2019-05-21T04:37:09.364Z,66.37
2019-05-21T04:39:27.978Z,65.87
2019-05-21T04:42:00.087Z,63.30
2019-05-21T04:44:31.819Z,67.33
2019-05-21T04:47:03.402Z,66.60
2019-05-21T04:49:35.148Z,60.40
2019-05-21T04:52:06.709Z,65.93
2019-05-21T04:54:39.010Z,65.07
2019-05-21T04:57:10.675Z,65.03
2019-05-21T04:59:42.202Z,53.37
2019-05-21T05:02:14.915Z,58.20
2019-05-21T05:04:46.446Z,60.23
2019-05-21T05:07:28.425Z,59.67
2019-05-21T05:09:53.439Z,51.57
2019-05-21T05:12:26.651Z,55.50
2019-05-21T05:14:58.370Z,54.60
2019-05-21T05:17:30.275Z,54.50
2019-05-21T05:20:02.150Z,58.30
2019-05-21T05:22:36.449Z,58.50
2019-05-21T05:25:07.923Z,58.33
2019-05-21T05:27:40.197Z,51.27
2019-05-21T05:30:12.754Z,54.87
2019-05-21T05:32:46.161Z,63.40
2019-05-21T05:35:19.710Z,58.47
2019-05-21T05:37:51.585Z,66.00
2019-05-21T05:40:25.643Z,59.17
2019-05-21T05:42:57.221Z,60.13
2019-05-21T05:45:29.935Z,59.80
2019-05-21T05:48:02.314Z,62.57
2019-05-21T05:50:51.641Z,63.50
2019-05-21T05:53:24.013Z,61.93
2019-05-21T05:55:57.638Z,61.07
2019-05-21T05:58:29.190Z,53.70
2019-05-21T06:01:00.970Z,60.83
2019-05-21T06:03:33.495Z,60.77
2019-05-21T06:06:09.322Z,58.50
2019-05-21T06:08:41.168Z,59.57
2019-05-21T06:11:13.668Z,54.60
2019-05-21T06:13:45.854Z,58.20
2019-05-21T06:16:17.257Z,58.20
2019-05-21T06:18:51.362Z,52.57
2019-05-21T06:21:23.526Z,52.10
2019-05-21T06:23:57.070Z,48.60
2019-05-21T06:26:29.907Z,47.17
2019-05-21T06:29:01.751Z,45.87
2019-05-21T06:31:32.814Z,48.80
2019-05-21T06:34:05.716Z,43.53
2019-05-21T06:36:38.524Z,41.93
2019-05-21T06:39:11.253Z,50.87
2019-05-21T06:41:44.782Z,42.40
2019-05-21T06:44:18.077Z,42.73
2019-05-21T06:46:51.126Z,41.37
2019-05-21T06:49:23.589Z,41.43
2019-05-21T06:51:55.256Z,35.13
2019-05-21T06:54:28.075Z,46.43
2019-05-21T06:57:00.551Z,46.00
2019-05-21T06:59:32.266Z,41.47
2019-05-21T07:02:04.225Z,41.83
2019-05-21T07:04:36.241Z,33.80
2019-05-21T07:07:08.785Z,41.53
2019-05-21T07:09:41.376Z,44.53
2019-05-21T07:12:13.774Z,38.57
2019-05-21T07:14:46.450Z,39.83
2019-05-21T07:17:20.854Z,47.90
2019-05-21T07:19:52.066Z,47.07
2019-05-21T07:22:23.722Z,47.97
2019-05-21T07:24:55.376Z,49.23
2019-05-21T07:27:29.503Z,46.90
2019-05-21T07:30:02.275Z,52.73
2019-05-21T07:32:34.116Z,52.87
2019-05-21T07:35:06.217Z,53.97
2019-05-21T07:37:38.613Z,46.13
2019-05-21T07:40:11.566Z,47.33
2019-05-21T07:42:43.018Z,52.97
2019-05-21T07:45:18.190Z,50.13
2019-05-21T07:47:49.948Z,39.50
2019-05-21T07:50:22.449Z,47.23
2019-05-21T07:52:55.060Z,50.57
2019-05-21T07:55:29.298Z,41.37
2019-05-21T07:58:01.911Z,54.40
2019-05-21T08:00:34.624Z,51.17
2019-05-21T08:03:06.443Z,51.27
2019-05-21T08:05:38.988Z,48.90
2019-05-21T08:08:13.453Z,56.50
2019-05-21T08:10:47.043Z,53.67
2019-05-21T08:13:18.948Z,48.90
2019-05-21T08:15:50.499Z,49.53
2019-05-21T08:18:22.218Z,50.67
2019-05-21T08:20:53.645Z,45.80
2019-05-21T08:23:25.396Z,62.30
2019-05-21T08:25:58.965Z,59.70
2019-05-21T08:28:31.704Z,58.13
2019-05-21T08:31:03.526Z,60.07
2019-05-21T08:33:35.420Z,80.30
2019-05-21T08:36:07.318Z,80.03
2019-05-21T08:38:39.298Z,66.10
2019-05-21T08:41:12.234Z,62.27
2019-05-21T08:43:44.078Z,72.07
2019-05-21T08:46:18.575Z,69.67
2019-05-21T08:48:50.514Z,68.57
2019-05-21T08:51:23.359Z,61.93
2019-05-21T08:53:56.080Z,58.17
2019-05-21T08:56:28.538Z,59.00
2019-05-21T08:59:01.258Z,61.70
2019-05-21T09:01:33.768Z,62.03
2019-05-21T09:04:07.059Z,59.27
2019-05-21T09:06:39.557Z,63.80
2019-05-21T09:09:12.241Z,55.87
2019-05-21T09:11:45.137Z,55.67
2019-05-21T09:14:17.970Z,54.53
2019-05-21T09:16:52.581Z,54.93
2019-05-21T09:19:26.100Z,43.63
2019-05-21T09:21:57.758Z,51.97
2019-05-21T09:24:30.488Z,54.97
2019-05-21T09:27:03.186Z,50.03
2019-05-21T09:29:35.246Z,51.00
2019-05-21T09:32:08.145Z,47.70
2019-05-21T09:34:48.494Z,48.37
2019-05-21T09:37:19.698Z,49.03
2019-05-21T09:39:48.978Z,43.50
2019-05-21T09:42:20.543Z,42.83
2019-05-21T09:44:52.300Z,46.37
2019-05-21T09:47:26.503Z,45.33
2019-05-21T09:49:59.859Z,39.47
2019-05-21T09:52:31.378Z,45.47
2019-05-21T09:55:03.845Z,48.00
2019-05-21T09:57:38.253Z,35.97
2019-05-21T10:00:16.393Z,42.83
2019-05-21T10:02:50.128Z,42.67
2019-05-21T10:05:21.978Z,41.33
2019-05-21T10:08:00.246Z,35.37
2019-05-21T10:10:33.312Z,39.97
2019-05-21T10:13:05.101Z,40.93
2019-05-21T10:15:36.686Z,42.10
2019-05-21T10:18:08.974Z,41.00
2019-05-21T10:20:43.434Z,40.73
2019-05-21T10:23:16.249Z,46.33
2019-05-21T10:25:48.942Z,33.03
2019-05-21T10:28:21.250Z,45.23
2019-05-21T10:30:52.693Z,45.67
2019-05-21T10:33:28.842Z,39.67
2019-05-21T10:36:02.495Z,49.27
2019-05-21T10:38:35.688Z,41.77
2019-05-21T10:41:08.725Z,47.90
2019-05-21T10:43:39.809Z,48.27
2019-05-21T10:46:12.325Z,42.43
2019-05-21T10:48:45.298Z,44.00
2019-05-21T10:51:17.579Z,44.13
2019-05-21T10:53:49.885Z,50.43
2019-05-21T10:56:22.441Z,37.80
2019-05-21T10:58:55.247Z,44.23
2019-05-21T11:01:31.915Z,44.43
2019-05-21T11:04:17.801Z,35.80
2019-05-21T11:06:51.323Z,48.17
2019-05-21T11:09:24.825Z,37.30
2019-05-21T11:11:59.379Z,40.40
2019-05-21T11:14:34.032Z,38.20
2019-05-21T11:17:11.192Z,39.53
2019-05-21T11:19:45.135Z,45.37
2019-05-21T11:22:18.027Z,34.37
2019-05-21T11:24:49.947Z,41.13
2019-05-21T11:27:23.590Z,42.17
2019-05-21T11:29:56.058Z,40.43
2019-05-21T11:32:28.913Z,41.17
2019-05-21T11:35:00.738Z,34.00
2019-05-21T11:37:33.483Z,44.70
2019-05-21T11:40:08.588Z,38.63
2019-05-21T11:42:41.707Z,41.43
2019-05-21T11:45:13.361Z,41.40
2019-05-21T11:47:45.650Z,41.50
2019-05-21T11:50:19.100Z,32.40
2019-05-21T11:52:51.569Z,35.97
2019-05-21T11:55:24.287Z,40.90
2019-05-21T11:57:59.409Z,35.53
2019-05-21T12:00:30.825Z,36.50
2019-05-21T12:03:04.298Z,30.77
2019-05-21T12:05:37.585Z,37.53
2019-05-21T12:08:10.182Z,35.60
2019-05-21T12:10:41.744Z,36.90
2019-05-21T12:13:20.260Z,39.67
2019-05-21T12:15:50.392Z,37.13
2019-05-21T12:18:23.112Z,37.37
2019-05-21T12:20:55.885Z,35.07
2019-05-21T12:23:28.653Z,28.43
2019-05-21T12:26:00.704Z,35.27
2019-05-21T12:28:32.455Z,36.10
2019-05-21T12:31:06.211Z,36.03
2019-05-21T12:33:38.646Z,32.13
2019-05-21T12:36:11.791Z,31.10
2019-05-21T12:38:44.237Z,34.77
2019-05-21T12:41:17.211Z,38.83
2019-05-21T12:43:49.606Z,33.83
2019-05-21T12:46:22.237Z,37.20
2019-05-21T12:48:54.697Z,38.47
2019-05-21T12:51:26.461Z,37.80
2019-05-21T12:53:58.429Z,38.17
2019-05-21T12:56:30.220Z,39.23
2019-05-21T12:59:02.588Z,33.73
2019-05-21T13:01:35.306Z,30.47
2019-05-21T13:04:08.244Z,34.73
2019-05-21T13:06:40.285Z,34.23
2019-05-21T13:09:12.793Z,32.67
2019-05-21T13:11:44.664Z,31.70
2019-05-21T13:14:18.863Z,34.30
2019-05-21T13:16:51.834Z,33.13
2019-05-21T13:19:26.353Z,29.00
2019-05-21T13:21:58.267Z,29.93
2019-05-21T13:24:30.807Z,30.07
2019-05-21T13:27:02.220Z,32.63
2019-05-21T13:29:33.794Z,31.70
2019-05-21T13:32:08.427Z,29.00
2019-05-21T13:34:40.338Z,33.63
2019-05-21T13:37:11.897Z,29.20
2019-05-21T13:39:49.815Z,31.60
2019-05-21T13:42:18.264Z,29.60
2019-05-21T13:44:50.834Z,31.93
2019-05-21T13:47:23.258Z,30.80
2019-05-21T13:49:54.685Z,29.47
2019-05-21T13:52:26.449Z,29.33
2019-05-21T13:54:59.209Z,33.00
2019-05-21T13:57:30.281Z,31.80
2019-05-21T14:00:03.092Z,31.77
2019-05-21T14:02:36.062Z,24.73
2019-05-21T14:05:08.064Z,28.97
2019-05-21T14:07:41.136Z,31.57
2019-05-21T14:10:17.146Z,28.30
2019-05-21T14:12:50.283Z,24.37
2019-05-21T14:15:23.105Z,31.67
2019-05-21T14:17:55.046Z,22.90
2019-05-21T14:20:29.181Z,28.10
2019-05-21T14:23:01.498Z,28.73
2019-05-21T14:25:34.925Z,28.97
2019-05-21T14:28:07.552Z,28.17
2019-05-21T14:30:42.760Z,24.90
2019-05-21T14:33:15.233Z,26.20
2019-05-21T14:35:47.964Z,26.37
2019-05-21T14:38:21.603Z,20.40
2019-05-21T14:40:54.077Z,23.80
2019-05-21T14:43:26.690Z,24.23
2019-05-21T14:45:59.166Z,27.13
2019-05-21T14:48:30.537Z,23.60
2019-05-21T14:51:03.217Z,26.00
2019-05-21T14:53:38.509Z,25.93
2019-05-21T14:56:10.237Z,22.63
2019-05-21T14:58:40.616Z,28.37
2019-05-21T15:01:11.545Z,27.47
2019-05-21T15:03:44.171Z,26.83
2019-05-21T15:06:17.026Z,23.47
2019-05-21T15:08:49.936Z,26.10
2019-05-21T15:11:22.478Z,27.53
2019-05-21T15:13:58.927Z,25.80
2019-05-21T15:16:31.478Z,27.33
2019-05-21T15:19:04.770Z,25.87
2019-05-21T15:21:39.095Z,28.13
2019-05-21T15:24:10.506Z,27.73
2019-05-21T15:26:42.633Z,27.80
2019-05-21T15:29:15.458Z,26.13
2019-05-21T15:31:48.132Z,28.00
2019-05-21T15:34:19.698Z,29.03
2019-05-21T15:36:53.178Z,29.27
2019-05-21T15:39:27.218Z,27.83
2019-05-21T15:41:59.062Z,27.23
2019-05-21T15:44:31.654Z,26.37
2019-05-21T15:47:03.950Z,28.37
2019-05-21T15:49:37.066Z,27.63
2019-05-21T15:52:08.774Z,30.30
2019-05-21T15:54:40.202Z,29.60
2019-05-21T15:57:12.505Z,26.40
2019-05-21T15:59:44.794Z,32.60
2019-05-21T16:02:19.254Z,28.90
2019-05-21T16:04:51.543Z,30.10
2019-05-21T16:07:25.614Z,25.70
2019-05-21T16:09:57.973Z,29.97
2019-05-21T16:12:30.166Z,30.90
2019-05-21T16:15:02.740Z,29.20
2019-05-21T16:17:36.416Z,28.77
2019-05-21T16:20:09.551Z,30.57
2019-05-21T16:22:41.182Z,30.90
2019-05-21T16:25:14.555Z,30.13
2019-05-21T16:27:46.477Z,24.57
2019-05-21T16:30:18.969Z,32.60
2019-05-21T16:32:51.364Z,27.37
2019-05-21T16:35:24.046Z,26.57
2019-05-21T16:37:56.787Z,24.43
2019-05-21T16:40:29.566Z,27.47
2019-05-21T16:43:01.442Z,27.43
2019-05-21T16:45:35.137Z,26.03
2019-05-21T16:48:07.513Z,28.97
2019-05-21T16:50:39.570Z,27.63
2019-05-21T16:53:13.016Z,28.37
2019-05-21T16:55:48.864Z,28.17
2019-05-21T16:58:19.771Z,28.33
2019-05-21T17:00:52.443Z,25.50
2019-05-21T17:03:23.502Z,26.17
2019-05-21T17:05:56.149Z,26.77
2019-05-21T17:08:28.085Z,28.33
2019-05-21T17:10:59.875Z,22.60
2019-05-21T17:13:31.695Z,27.80
2019-05-21T17:16:04.221Z,27.03
2019-05-21T17:18:36.879Z,29.73
2019-05-21T17:21:08.458Z,34.10
2019-05-21T17:23:40.736Z,31.53
2019-05-21T17:26:12.409Z,30.43
2019-05-21T17:28:45.083Z,32.20
2019-05-21T17:31:16.451Z,27.43
2019-05-21T17:33:48.006Z,28.00
2019-05-21T17:36:20.386Z,30.17
2019-05-21T17:38:53.082Z,28.70
2019-05-21T17:41:27.284Z,29.53
2019-05-21T17:44:01.656Z,24.97
2019-05-21T17:46:33.172Z,23.80
2019-05-21T17:49:05.614Z,29.03
2019-05-21T17:51:36.609Z,26.80
2019-05-21T17:54:09.335Z,26.73
2019-05-21T17:56:42.246Z,27.27
2019-05-21T17:59:15.022Z,29.47
2019-05-21T18:01:50.474Z,24.60
2019-05-21T18:04:24.706Z,29.97
2019-05-21T18:06:57.318Z,32.37
2019-05-21T18:09:30.463Z,36.03
2019-05-21T18:12:02.669Z,41.13
2019-05-21T18:14:34.433Z,29.83
2019-05-21T18:17:07.090Z,38.87
2019-05-21T18:19:39.728Z,37.83
2019-05-21T18:22:12.202Z,43.20
2019-05-21T18:24:43.552Z,39.33
2019-05-21T18:27:16.136Z,31.53
2019-05-21T18:29:52.060Z,36.77
2019-05-21T18:32:25.335Z,35.70
2019-05-21T18:34:57.587Z,39.00
2019-05-21T18:37:31.018Z,37.63
2019-05-21T18:40:04.770Z,29.13
2019-05-21T18:42:38.132Z,40.37
2019-05-21T18:45:11.235Z,39.43
2019-05-21T18:47:43.606Z,37.70
2019-05-21T18:50:16.143Z,36.60
2019-05-21T18:52:51.282Z,37.60
2019-05-21T18:55:23.611Z,35.17
2019-05-21T18:57:55.994Z,36.97
2019-05-21T19:00:27.438Z,35.73
2019-05-21T19:03:00.416Z,34.33
2019-05-21T19:05:35.503Z,32.77
2019-05-21T19:08:10.042Z,42.47
2019-05-21T19:10:42.840Z,38.07
2019-05-21T19:13:15.275Z,38.77
2019-05-21T19:15:47.566Z,28.87
2019-05-21T19:18:19.302Z,38.93
2019-05-21T19:20:53.489Z,36.20
2019-05-21T19:23:25.879Z,40.03
2019-05-21T19:25:59.374Z,40.70
2019-05-21T19:28:32.152Z,37.93
2019-05-21T19:31:06.290Z,36.63
2019-05-21T19:33:37.313Z,32.70
2019-05-21T19:36:07.990Z,34.80
2019-05-21T19:38:40.433Z,27.80
2019-05-21T19:41:12.821Z,31.83
2019-05-21T19:43:45.513Z,33.43
2019-05-21T19:46:17.891Z,25.20
2019-05-21T19:48:50.663Z,31.07
2019-05-21T19:51:22.213Z,33.97
2019-05-21T19:53:53.942Z,32.23
2019-05-21T19:56:26.654Z,23.07
2019-05-21T19:58:58.578Z,29.70
2019-05-21T20:01:30.151Z,30.77
2019-05-21T20:04:02.766Z,28.23
2019-05-21T20:06:37.296Z,32.10
2019-05-21T20:09:17.055Z,35.30
2019-05-21T20:11:50.975Z,26.47
2019-05-21T20:14:24.026Z,30.90
2019-05-21T20:16:57.525Z,37.60
2019-05-21T20:19:30.911Z,31.73
2019-05-21T20:22:03.493Z,24.30
2019-05-21T20:24:37.555Z,29.93
2019-05-21T20:27:09.086Z,33.13
2019-05-21T20:29:42.278Z,33.00
2019-05-21T20:32:15.738Z,39.10
2019-05-21T20:34:51.168Z,38.03
2019-05-21T20:37:26.609Z,34.60
2019-05-21T20:39:59.719Z,32.83
2019-05-21T20:42:34.303Z,34.50
2019-05-21T20:45:11.334Z,37.97
2019-05-21T20:47:46.186Z,39.30
2019-05-21T20:50:20.472Z,33.70
2019-05-21T20:52:53.064Z,39.93
2019-05-21T20:55:25.229Z,45.53
2019-05-21T20:57:58.863Z,44.23
2019-05-21T21:00:31.874Z,40.50
2019-05-21T21:03:04.936Z,44.57
2019-05-21T21:05:36.598Z,40.90
2019-05-21T21:08:08.226Z,33.30
2019-05-21T21:10:40.072Z,43.27
2019-05-21T21:13:12.990Z,38.33
2019-05-21T21:15:45.290Z,41.07
2019-05-21T21:18:18.461Z,37.30
2019-05-21T21:20:51.733Z,40.53
2019-05-21T21:23:25.917Z,44.10
2019-05-21T21:25:58.421Z,44.50
2019-05-21T21:28:32.493Z,42.20
2019-05-21T21:31:04.490Z,40.47
2019-05-21T21:33:38.215Z,42.57
2019-05-21T21:36:09.985Z,46.53
2019-05-21T21:38:43.505Z,35.20
2019-05-21T21:41:15.879Z,45.03
2019-05-21T21:43:46.778Z,42.77
2019-05-21T21:46:19.213Z,41.33
2019-05-21T21:48:52.560Z,42.90
2019-05-21T21:51:24.078Z,47.37
2019-05-21T21:53:56.394Z,50.67
2019-05-21T21:56:30.769Z,47.70
2019-05-21T21:59:05.030Z,48.20
2019-05-21T22:01:55.059Z,50.43
2019-05-21T22:04:31.930Z,47.23
2019-05-21T22:07:04.124Z,46.10
2019-05-21T22:09:37.455Z,53.23
2019-05-21T22:12:10.766Z,56.20
2019-05-21T22:14:51.831Z,58.10
2019-05-21T22:17:18.995Z,57.53
2019-05-21T22:19:51.276Z,48.47
2019-05-21T22:22:22.198Z,51.63
2019-05-21T22:24:53.691Z,46.93
2019-05-21T22:27:27.127Z,62.17
2019-05-21T22:30:01.488Z,49.30
2019-05-21T22:32:34.099Z,51.53
2019-05-21T22:35:07.117Z,55.57
2019-05-21T22:37:39.950Z,59.63
2019-05-21T22:40:11.694Z,52.43
2019-05-21T22:42:46.621Z,48.10
2019-05-21T22:45:17.961Z,52.70
2019-05-21T22:47:49.355Z,59.40
2019-05-21T22:50:21.842Z,47.83
2019-05-21T22:52:54.526Z,58.60
2019-05-21T22:55:27.340Z,62.27
2019-05-21T22:57:59.234Z,47.27
2019-05-21T23:00:32.644Z,58.47
2019-05-21T23:03:05.258Z,59.80
2019-05-21T23:05:40.705Z,61.50
2019-05-21T23:08:13.009Z,50.47
2019-05-21T23:10:45.390Z,60.03
2019-05-21T23:13:17.745Z,58.93
2019-05-21T23:15:50.557Z,60.70
2019-05-21T23:18:23.273Z,48.80
2019-05-21T23:21:00.203Z,61.40
2019-05-21T23:23:34.201Z,56.33
2019-05-21T23:26:07.583Z,50.10
2019-05-21T23:28:39.379Z,59.30
2019-05-21T23:31:13.754Z,59.07
2019-05-21T23:33:45.346Z,62.27
2019-05-21T23:36:17.751Z,60.23
2019-05-21T23:38:50.765Z,50.70
2019-05-21T23:41:23.364Z,56.77
2019-05-21T23:43:56.478Z,61.83
2019-05-21T23:46:30.121Z,62.57
2019-05-21T23:49:02.518Z,54.37
2019-05-21T23:51:34.084Z,68.93
2019-05-21T23:54:05.842Z,57.63
2019-05-21T23:56:38.736Z,62.27
2019-05-21T23:59:11.313Z,60.93
